Terminal Aerodrome Forecast
Issued by NWS

Home | Current Version | Previous Version | Text Only | Print | Product List | Glossary On
Versions: 1 2 3 4 5 6 7 8 9 10 11 12 13 14 15 16 17 18
661
FTUS42 KFFC 251935 AAA
TAFPDK
TAF AMD
KPDK 251935Z 2520/2618 31010G18KT P6SM BKN035
     FM252200 30010G18KT P6SM SCT040
     FM260000 31007KT P6SM SCT100
     FM260300 31003KT P6SM SCT250
     FM261100 02004KT P6SM BKN100
     FM261400 14007KT P6SM VCSH OVC020
     FM261700 18009KT 6SM -SHRA BKN025 OVC040 PROB30 2617/2618 3SM
      -TSRA BKN015CB=

USA.gov is the U.S. government's official web portal to all federal, state and local government web resources and services.